sensor_id;sensor_type;location;lat;lon;timestamp;temperature;humidity
70107;DHT22;57473;37.508;15.080;2023-03-01T00:01:38;12.90;99.90
70107;DHT22;57473;37.508;15.080;2023-03-01T00:04:06;12.90;99.90
70107;DHT22;57473;37.508;15.080;2023-03-01T00:06:33;12.80;99.90
70107;DHT22;57473;37.508;15.080;2023-03-01T00:09:00;12.80;99.90
70107;DHT22;57473;37.508;15.080;2023-03-01T00:11:29;12.80;99.90
70107;DHT22;57473;37.508;15.080;2023-03-01T00:13:59;12.80;99.90
70107;DHT22;57473;37.508;15.080;2023-03-01T00:16:30;12.70;99.90
70107;DHT22;57473;37.508;15.080;2023-03-01T00:19:00;12.70;99.90
70107;DHT22;57473;37.508;15.080;2023-03-01T00:21:28;12.70;99.90
70107;DHT22;57473;37.508;15.080;2023-03-01T00:23:56;12.70;99.90
70107;DHT22;57473;37.508;15.080;2023-03-01T00:26:25;12.70;99.90
70107;DHT22;57473;37.508;15.080;2023-03-01T00:28:53;12.70;99.90
70107;DHT22;57473;37.508;15.080;2023-03-01T00:31:28;12.60;99.90
70107;DHT22;57473;37.508;15.080;2023-03-01T00:33:58;12.60;99.90
70107;DHT22;57473;37.508;15.080;2023-03-01T00:36:27;12.50;99.90
70107;DHT22;57473;37.508;15.080;2023-03-01T00:38:56;12.50;99.90
70107;DHT22;57473;37.508;15.080;2023-03-01T00:41:25;12.50;99.90
70107;DHT22;57473;37.508;15.080;2023-03-01T00:43:56;12.40;99.90
70107;DHT22;57473;37.508;15.080;2023-03-01T00:46:25;12.40;99.90
70107;DHT22;57473;37.508;15.080;2023-03-01T00:48:53;12.30;99.90
70107;DHT22;57473;37.508;15.080;2023-03-01T00:51:23;12.30;99.90
70107;DHT22;57473;37.508;15.080;2023-03-01T00:53:53;12.20;99.90
70107;DHT22;57473;37.508;15.080;2023-03-01T00:56:21;12.20;99.90
70107;DHT22;57473;37.508;15.080;2023-03-01T00:58:48;12.20;99.90
70107;DHT22;57473;37.508;15.080;2023-03-01T01:01:19;12.20;99.90
70107;DHT22;57473;37.508;15.080;2023-03-01T01:03:55;12.20;99.90
70107;DHT22;57473;37.508;15.080;2023-03-01T01:06:34;12.20;99.90
70107;DHT22;57473;37.508;15.080;2023-03-01T01:09:04;12.20;99.90
70107;DHT22;57473;37.508;15.080;2023-03-01T01:11:32;12.20;99.90
70107;DHT22;57473;37.508;15.080;2023-03-01T01:13:59;12.20;99.90
70107;DHT22;57473;37.508;15.080;2023-03-01T01:16:29;12.20;99.90
70107;DHT22;57473;37.508;15.080;2023-03-01T01:18:57;12.20;99.90
70107;DHT22;57473;37.508;15.080;2023-03-01T01:21:25;12.20;99.90
70107;DHT22;57473;37.508;15.080;2023-03-01T01:23:53;12.30;99.90
70107;DHT22;57473;37.508;15.080;2023-03-01T01:26:23;12.30;99.90
70107;DHT22;57473;37.508;15.080;2023-03-01T01:28:51;12.30;99.90
70107;DHT22;57473;37.508;15.080;2023-03-01T01:31:20;12.20;99.90
70107;DHT22;57473;37.508;15.080;2023-03-01T01:33:51;12.20;99.90
70107;DHT22;57473;37.508;15.080;2023-03-01T01:36:19;12.10;99.90
70107;DHT22;57473;37.508;15.080;2023-03-01T01:38:47;12.00;99.90
70107;DHT22;57473;37.508;15.080;2023-03-01T01:41:17;12.00;99.90
70107;DHT22;57473;37.508;15.080;2023-03-01T01:43:47;11.90;99.90
70107;DHT22;57473;37.508;15.080;2023-03-01T01:46:16;11.80;99.90
70107;DHT22;57473;37.508;15.080;2023-03-01T01:48:49;11.80;99.90
70107;DHT22;57473;37.508;15.080;2023-03-01T01:51:25;11.70;99.90
70107;DHT22;57473;37.508;15.080;2023-03-01T01:53:58;11.70;99.60
70107;DHT22;57473;37.508;15.080;2023-03-01T01:56:26;11.60;99.10
70107;DHT22;57473;37.508;15.080;2023-03-01T01:58:56;11.50;99.20
70107;DHT22;57473;37.508;15.080;2023-03-01T02:01:25;11.40;98.70
70107;DHT22;57473;37.508;15.080;2023-03-01T02:03:52;11.40;98.40
70107;DHT22;57473;37.508;15.080;2023-03-01T02:08:49;11.40;95.40
70107;DHT22;57473;37.508;15.080;2023-03-01T02:11:18;11.40;94.40
70107;DHT22;57473;37.508;15.080;2023-03-01T02:13:47;11.40;93.60
70107;DHT22;57473;37.508;15.080;2023-03-01T02:16:16;11.30;93.10
70107;DHT22;57473;37.508;15.080;2023-03-01T02:18:44;11.30;91.20
70107;DHT22;57473;37.508;15.080;2023-03-01T02:21:49;11.30;90.40
70107;DHT22;57473;37.508;15.080;2023-03-01T02:25:25;11.40;89.20
70107;DHT22;57473;37.508;15.080;2023-03-01T02:27:19;11.30;89.00
70107;DHT22;57473;37.508;15.080;2023-03-01T02:29:52;11.30;88.00
70107;DHT22;57473;37.508;15.080;2023-03-01T02:32:20;11.30;86.40
70107;DHT22;57473;37.508;15.080;2023-03-01T02:34:54;11.30;84.60
70107;DHT22;57473;37.508;15.080;2023-03-01T02:37:22;11.30;82.90
70107;DHT22;57473;37.508;15.080;2023-03-01T02:40:01;11.30;81.90
70107;DHT22;57473;37.508;15.080;2023-03-01T02:42:35;11.40;81.40
70107;DHT22;57473;37.508;15.080;2023-03-01T02:45:04;11.40;80.80
70107;DHT22;57473;37.508;15.080;2023-03-01T02:47:32;11.30;80.90
70107;DHT22;57473;37.508;15.080;2023-03-01T02:49:59;11.30;80.90
70107;DHT22;57473;37.508;15.080;2023-03-01T02:55:28;11.20;81.20
70107;DHT22;57473;37.508;15.080;2023-03-01T02:57:56;11.20;82.00
70107;DHT22;57473;37.508;15.080;2023-03-01T03:00:40;11.10;82.60
70107;DHT22;57473;37.508;15.080;2023-03-01T03:03:19;11.10;83.30
70107;DHT22;57473;37.508;15.080;2023-03-01T03:05:48;11.10;83.60
70107;DHT22;57473;37.508;15.080;2023-03-01T03:08:15;11.00;83.80
70107;DHT22;57473;37.508;15.080;2023-03-01T03:10:52;11.00;84.10
70107;DHT22;57473;37.508;15.080;2023-03-01T03:13:21;10.90;84.30
70107;DHT22;57473;37.508;15.080;2023-03-01T03:15:49;10.80;85.20
70107;DHT22;57473;37.508;15.080;2023-03-01T03:18:17;10.70;85.60
70107;DHT22;57473;37.508;15.080;2023-03-01T03:20:45;10.70;85.70
70107;DHT22;57473;37.508;15.080;2023-03-01T03:23:13;10.70;85.40
70107;DHT22;57473;37.508;15.080;2023-03-01T03:25:40;10.60;85.60
70107;DHT22;57473;37.508;15.080;2023-03-01T03:28:08;10.60;85.40
70107;DHT22;57473;37.508;15.080;2023-03-01T03:30:40;10.60;85.70
70107;DHT22;57473;37.508;15.080;2023-03-01T03:33:09;10.60;85.30
70107;DHT22;57473;37.508;15.080;2023-03-01T03:35:47;10.60;85.10
70107;DHT22;57473;37.508;15.080;2023-03-01T03:38:17;10.60;85.10
70107;DHT22;57473;37.508;15.080;2023-03-01T03:40:48;10.50;85.30
70107;DHT22;57473;37.508;15.080;2023-03-01T03:43:22;10.50;85.60
70107;DHT22;57473;37.508;15.080;2023-03-01T03:45:50;10.40;85.70
70107;DHT22;57473;37.508;15.080;2023-03-01T03:48:18;10.40;85.90
70107;DHT22;57473;37.508;15.080;2023-03-01T03:50:51;10.30;85.20
70107;DHT22;57473;37.508;15.080;2023-03-01T03:53:20;10.40;84.70
70107;DHT22;57473;37.508;15.080;2023-03-01T03:55:47;10.40;84.10
70107;DHT22;57473;37.508;15.080;2023-03-01T03:58:17;10.40;83.80
70107;DHT22;57473;37.508;15.080;2023-03-01T04:00:48;10.40;83.60
70107;DHT22;57473;37.508;15.080;2023-03-01T04:03:17;10.40;83.30
70107;DHT22;57473;37.508;15.080;2023-03-01T04:05:46;10.40;83.40
70107;DHT22;57473;37.508;15.080;2023-03-01T04:08:13;10.40;83.60
70107;DHT22;57473;37.508;15.080;2023-03-01T04:10:44;10.30;83.70
70107;DHT22;57473;37.508;15.080;2023-03-01T04:13:15;10.30;84.10
70107;DHT22;57473;37.508;15.080;2023-03-01T04:15:43;10.20;84.30
70107;DHT22;57473;37.508;15.080;2023-03-01T04:18:15;10.20;84.50
70107;DHT22;57473;37.508;15.080;2023-03-01T04:20:43;10.20;84.80
70107;DHT22;57473;37.508;15.080;2023-03-01T04:23:18;10.20;85.00
70107;DHT22;57473;37.508;15.080;2023-03-01T04:25:49;10.20;85.10
70107;DHT22;57473;37.508;15.080;2023-03-01T04:28:29;10.10;85.40
70107;DHT22;57473;37.508;15.080;2023-03-01T04:30:57;10.00;86.10
70107;DHT22;57473;37.508;15.080;2023-03-01T04:33:25;10.00;86.10
70107;DHT22;57473;37.508;15.080;2023-03-01T04:35:52;10.00;86.40
70107;DHT22;57473;37.508;15.080;2023-03-01T04:38:20;10.00;86.50
70107;DHT22;57473;37.508;15.080;2023-03-01T04:40:48;10.00;86.80
70107;DHT22;57473;37.508;15.080;2023-03-01T04:43:15;9.90;87.20
70107;DHT22;57473;37.508;15.080;2023-03-01T04:45:43;9.90;87.50
70107;DHT22;57473;37.508;15.080;2023-03-01T04:48:11;9.90;87.90
70107;DHT22;57473;37.508;15.080;2023-03-01T04:50:38;9.90;88.00
70107;DHT22;57473;37.508;15.080;2023-03-01T04:53:05;9.90;88.10
70107;DHT22;57473;37.508;15.080;2023-03-01T04:55:33;9.90;89.00
70107;DHT22;57473;37.508;15.080;2023-03-01T04:58:01;9.80;89.80
70107;DHT22;57473;37.508;15.080;2023-03-01T05:00:28;9.80;90.20
70107;DHT22;57473;37.508;15.080;2023-03-01T05:02:58;9.80;90.50
70107;DHT22;57473;37.508;15.080;2023-03-01T05:05:32;9.80;90.80
70107;DHT22;57473;37.508;15.080;2023-03-01T05:08:02;9.80;91.10
70107;DHT22;57473;37.508;15.080;2023-03-01T05:10:32;9.80;91.50
70107;DHT22;57473;37.508;15.080;2023-03-01T05:13:03;9.80;91.50
70107;DHT22;57473;37.508;15.080;2023-03-01T05:15:31;9.80;91.30
70107;DHT22;57473;37.508;15.080;2023-03-01T05:18:00;9.80;91.30
70107;DHT22;57473;37.508;15.080;2023-03-01T05:20:29;9.80;91.30
70107;DHT22;57473;37.508;15.080;2023-03-01T05:22:59;9.80;91.20
70107;DHT22;57473;37.508;15.080;2023-03-01T05:25:27;9.80;91.40
70107;DHT22;57473;37.508;15.080;2023-03-01T05:28:01;9.80;91.10
70107;DHT22;57473;37.508;15.080;2023-03-01T05:30:34;9.70;91.00
70107;DHT22;57473;37.508;15.080;2023-03-01T05:33:02;9.70;91.10
70107;DHT22;57473;37.508;15.080;2023-03-01T05:35:32;9.70;91.60
70107;DHT22;57473;37.508;15.080;2023-03-01T05:37:59;9.70;91.90
70107;DHT22;57473;37.508;15.080;2023-03-01T05:40:27;9.60;91.70
70107;DHT22;57473;37.508;15.080;2023-03-01T05:42:55;9.60;91.80
70107;DHT22;57473;37.508;15.080;2023-03-01T05:45:25;9.60;91.70
70107;DHT22;57473;37.508;15.080;2023-03-01T05:47:53;9.60;91.50
70107;DHT22;57473;37.508;15.080;2023-03-01T05:50:28;9.60;91.40
70107;DHT22;57473;37.508;15.080;2023-03-01T05:52:59;9.70;91.00
70107;DHT22;57473;37.508;15.080;2023-03-01T05:55:29;9.70;88.50
70107;DHT22;57473;37.508;15.080;2023-03-01T05:58:07;9.80;87.50
70107;DHT22;57473;37.508;15.080;2023-03-01T06:00:34;9.90;86.90
70107;DHT22;57473;37.508;15.080;2023-03-01T06:03:02;9.90;87.20
70107;DHT22;57473;37.508;15.080;2023-03-01T06:05:30;9.90;86.70
70107;DHT22;57473;37.508;15.080;2023-03-01T06:08:01;9.90;86.10
70107;DHT22;57473;37.508;15.080;2023-03-01T06:10:29;10.00;85.80
70107;DHT22;57473;37.508;15.080;2023-03-01T06:12:57;10.00;85.50
70107;DHT22;57473;37.508;15.080;2023-03-01T06:15:25;10.10;84.50
70107;DHT22;57473;37.508;15.080;2023-03-01T06:17:54;10.10;83.80
70107;DHT22;57473;37.508;15.080;2023-03-01T06:20:28;10.20;83.80
70107;DHT22;57473;37.508;15.080;2023-03-01T06:22:56;10.30;82.80
70107;DHT22;57473;37.508;15.080;2023-03-01T06:25:25;10.40;82.50
70107;DHT22;57473;37.508;15.080;2023-03-01T06:27:53;10.50;82.30
70107;DHT22;57473;37.508;15.080;2023-03-01T06:30:22;10.60;81.80
70107;DHT22;57473;37.508;15.080;2023-03-01T06:32:50;10.70;81.00
70107;DHT22;57473;37.508;15.080;2023-03-01T06:35:19;10.80;79.90
70107;DHT22;57473;37.508;15.080;2023-03-01T06:37:48;10.90;79.20
70107;DHT22;57473;37.508;15.080;2023-03-01T06:40:15;11.00;78.80
70107;DHT22;57473;37.508;15.080;2023-03-01T06:42:47;11.10;78.20
70107;DHT22;57473;37.508;15.080;2023-03-01T06:45:19;11.10;77.40
70107;DHT22;57473;37.508;15.080;2023-03-01T06:47:47;11.20;76.30
70107;DHT22;57473;37.508;15.080;2023-03-01T06:50:15;11.20;76.20
70107;DHT22;57473;37.508;15.080;2023-03-01T06:52:43;11.30;75.80
70107;DHT22;57473;37.508;15.080;2023-03-01T06:55:12;11.50;75.80
70107;DHT22;57473;37.508;15.080;2023-03-01T06:57:40;11.50;74.50
70107;DHT22;57473;37.508;15.080;2023-03-01T07:00:08;11.50;73.90
70107;DHT22;57473;37.508;15.080;2023-03-01T07:02:35;11.50;73.90
70107;DHT22;57473;37.508;15.080;2023-03-01T07:05:03;11.60;73.50
70107;DHT22;57473;37.508;15.080;2023-03-01T07:07:30;11.70;73.00
70107;DHT22;57473;37.508;15.080;2023-03-01T07:09:58;11.90;72.30
70107;DHT22;57473;37.508;15.080;2023-03-01T07:12:25;12.00;71.90
70107;DHT22;57473;37.508;15.080;2023-03-01T07:14:52;12.10;71.40
70107;DHT22;57473;37.508;15.080;2023-03-01T07:17:20;12.20;71.00
70107;DHT22;57473;37.508;15.080;2023-03-01T07:19:47;12.20;70.50
70107;DHT22;57473;37.508;15.080;2023-03-01T07:22:15;12.30;70.70
70107;DHT22;57473;37.508;15.080;2023-03-01T07:24:43;12.40;70.10
70107;DHT22;57473;37.508;15.080;2023-03-01T07:27:10;12.50;69.30
70107;DHT22;57473;37.508;15.080;2023-03-01T07:29:38;12.60;68.80
70107;DHT22;57473;37.508;15.080;2023-03-01T07:32:06;12.60;68.30
70107;DHT22;57473;37.508;15.080;2023-03-01T07:34:33;12.70;67.00
70107;DHT22;57473;37.508;15.080;2023-03-01T07:37:01;12.80;65.70
70107;DHT22;57473;37.508;15.080;2023-03-01T07:39:28;12.90;64.80
70107;DHT22;57473;37.508;15.080;2023-03-01T07:41:55;12.80;64.10
70107;DHT22;57473;37.508;15.080;2023-03-01T07:44:24;12.80;63.80
70107;DHT22;57473;37.508;15.080;2023-03-01T07:46:51;12.90;63.20
70107;DHT22;57473;37.508;15.080;2023-03-01T07:49:23;12.90;62.10
70107;DHT22;57473;37.508;15.080;2023-03-01T07:51:50;13.00;60.60
70107;DHT22;57473;37.508;15.080;2023-03-01T07:54:18;13.00;59.40
70107;DHT22;57473;37.508;15.080;2023-03-01T07:56:45;13.00;57.90
70107;DHT22;57473;37.508;15.080;2023-03-01T07:59:13;12.90;57.20
70107;DHT22;57473;37.508;15.080;2023-03-01T08:01:40;12.90;55.80
70107;DHT22;57473;37.508;15.080;2023-03-01T08:04:08;12.90;55.40
70107;DHT22;57473;37.508;15.080;2023-03-01T08:06:36;13.00;55.00
70107;DHT22;57473;37.508;15.080;2023-03-01T08:09:04;12.90;53.80
70107;DHT22;57473;37.508;15.080;2023-03-01T08:11:31;13.00;53.20
70107;DHT22;57473;37.508;15.080;2023-03-01T08:13:59;13.00;52.40
70107;DHT22;57473;37.508;15.080;2023-03-01T08:16:27;13.00;52.70
70107;DHT22;57473;37.508;15.080;2023-03-01T08:18:55;13.00;52.60
70107;DHT22;57473;37.508;15.080;2023-03-01T08:21:26;13.00;51.90
70107;DHT22;57473;37.508;15.080;2023-03-01T08:23:53;13.10;51.60
70107;DHT22;57473;37.508;15.080;2023-03-01T08:26:21;13.20;51.00
70107;DHT22;57473;37.508;15.080;2023-03-01T08:28:49;13.20;51.00
70107;DHT22;57473;37.508;15.080;2023-03-01T08:31:21;13.30;50.90
70107;DHT22;57473;37.508;15.080;2023-03-01T08:33:50;13.30;50.70
70107;DHT22;57473;37.508;15.080;2023-03-01T08:36:31;13.40;50.20
70107;DHT22;57473;37.508;15.080;2023-03-01T08:38:59;13.60;50.30
70107;DHT22;57473;37.508;15.080;2023-03-01T08:41:27;13.60;50.10
70107;DHT22;57473;37.508;15.080;2023-03-01T08:43:55;13.60;49.90
70107;DHT22;57473;37.508;15.080;2023-03-01T08:46:33;13.60;50.10
70107;DHT22;57473;37.508;15.080;2023-03-01T08:49:07;13.70;49.40
70107;DHT22;57473;37.508;15.080;2023-03-01T08:51:35;13.60;48.80
70107;DHT22;57473;37.508;15.080;2023-03-01T08:54:11;13.60;48.60
70107;DHT22;57473;37.508;15.080;2023-03-01T08:56:39;13.60;48.00
70107;DHT22;57473;37.508;15.080;2023-03-01T08:59:06;13.50;48.30
70107;DHT22;57473;37.508;15.080;2023-03-01T09:01:34;13.60;47.80
70107;DHT22;57473;37.508;15.080;2023-03-01T09:04:01;13.60;47.70
70107;DHT22;57473;37.508;15.080;2023-03-01T09:06:33;13.70;47.50
70107;DHT22;57473;37.508;15.080;2023-03-01T09:09:01;13.80;47.20
70107;DHT22;57473;37.508;15.080;2023-03-01T09:11:29;14.00;46.50
70107;DHT22;57473;37.508;15.080;2023-03-01T09:13:56;14.10;45.50
70107;DHT22;57473;37.508;15.080;2023-03-01T09:16:24;14.20;45.40
70107;DHT22;57473;37.508;15.080;2023-03-01T09:18:53;14.30;44.70
70107;DHT22;57473;37.508;15.080;2023-03-01T09:21:22;14.30;44.30
70107;DHT22;57473;37.508;15.080;2023-03-01T09:24:08;14.50;42.70
70107;DHT22;57473;37.508;15.080;2023-03-01T09:26:39;14.70;41.50
70107;DHT22;57473;37.508;15.080;2023-03-01T09:29:06;14.90;40.60
70107;DHT22;57473;37.508;15.080;2023-03-01T09:31:33;15.10;37.50
70107;DHT22;57473;37.508;15.080;2023-03-01T09:34:01;15.10;37.40
70107;DHT22;57473;37.508;15.080;2023-03-01T09:36:28;15.00;38.30
70107;DHT22;57473;37.508;15.080;2023-03-01T09:38:57;15.10;37.80
70107;DHT22;57473;37.508;15.080;2023-03-01T09:41:54;15.10;38.10
70107;DHT22;57473;37.508;15.080;2023-03-01T09:47:02;14.90;37.00
70107;DHT22;57473;37.508;15.080;2023-03-01T09:49:32;14.50;37.80
70107;DHT22;57473;37.508;15.080;2023-03-01T09:52:12;14.60;38.40
70107;DHT22;57473;37.508;15.080;2023-03-01T09:54:43;14.60;39.10
70107;DHT22;57473;37.508;15.080;2023-03-01T10:10:53;15.50;36.20
70107;DHT22;57473;37.508;15.080;2023-03-01T10:14:07;15.40;34.90
70107;DHT22;57473;37.508;15.080;2023-03-01T10:17:09;15.50;34.40
70107;DHT22;57473;37.508;15.080;2023-03-01T10:19:20;15.70;35.10
70107;DHT22;57473;37.508;15.080;2023-03-01T10:21:51;15.70;36.00
70107;DHT22;57473;37.508;15.080;2023-03-01T10:24:19;15.60;37.30
70107;DHT22;57473;37.508;15.080;2023-03-01T10:26:57;15.40;37.10
70107;DHT22;57473;37.508;15.080;2023-03-01T10:32:38;15.60;38.10
70107;DHT22;57473;37.508;15.080;2023-03-01T10:35:35;15.70;36.70
70107;DHT22;57473;37.508;15.080;2023-03-01T10:38:10;15.70;32.40
70107;DHT22;57473;37.508;15.080;2023-03-01T10:40:59;15.50;32.10
70107;DHT22;57473;37.508;15.080;2023-03-01T10:43:51;15.50;32.60
70107;DHT22;57473;37.508;15.080;2023-03-01T10:46:33;15.60;32.60
70107;DHT22;57473;37.508;15.080;2023-03-01T10:49:14;15.80;32.20
70107;DHT22;57473;37.508;15.080;2023-03-01T10:51:44;15.90;33.70
70107;DHT22;57473;37.508;15.080;2023-03-01T10:59:31;16.00;33.90
70107;DHT22;57473;37.508;15.080;2023-03-01T11:02:30;16.00;34.60
70107;DHT22;57473;37.508;15.080;2023-03-01T11:05:02;16.10;35.00
70107;DHT22;57473;37.508;15.080;2023-03-01T11:07:30;16.30;33.80
70107;DHT22;57473;37.508;15.080;2023-03-01T11:09:57;16.40;33.20
70107;DHT22;57473;37.508;15.080;2023-03-01T11:12:25;16.60;33.30
70107;DHT22;57473;37.508;15.080;2023-03-01T11:14:54;16.80;32.50
70107;DHT22;57473;37.508;15.080;2023-03-01T11:17:29;17.00;31.50
70107;DHT22;57473;37.508;15.080;2023-03-01T11:22:53;17.50;31.70
70107;DHT22;57473;37.508;15.080;2023-03-01T11:25:26;17.50;32.10
70107;DHT22;57473;37.508;15.080;2023-03-01T11:27:55;17.80;31.90
70107;DHT22;57473;37.508;15.080;2023-03-01T11:38:48;18.60;32.00
70107;DHT22;57473;37.508;15.080;2023-03-01T11:41:18;18.80;31.60
70107;DHT22;57473;37.508;15.080;2023-03-01T11:44:09;18.70;31.20
70107;DHT22;57473;37.508;15.080;2023-03-01T11:47:12;19.00;31.40
70107;DHT22;57473;37.508;15.080;2023-03-01T11:52:45;19.40;32.60
70107;DHT22;57473;37.508;15.080;2023-03-01T11:55:19;19.50;31.80
70107;DHT22;57473;37.508;15.080;2023-03-01T12:01:07;19.00;33.10
70107;DHT22;57473;37.508;15.080;2023-03-01T12:12:35;19.50;33.50
70107;DHT22;57473;37.508;15.080;2023-03-01T12:21:53;19.90;33.50
70107;DHT22;57473;37.508;15.080;2023-03-01T12:49:25;19.40;36.00
70107;DHT22;57473;37.508;15.080;2023-03-01T12:54:36;20.40;34.80
70107;DHT22;57473;37.508;15.080;2023-03-01T13:00:31;20.10;35.20
70107;DHT22;57473;37.508;15.080;2023-03-01T13:02:52;20.40;35.00
70107;DHT22;57473;37.508;15.080;2023-03-01T13:05:45;20.30;35.10
70107;DHT22;57473;37.508;15.080;2023-03-01T13:08:22;20.50;35.20
70107;DHT22;57473;37.508;15.080;2023-03-01T13:11:00;21.00;34.20
70107;DHT22;57473;37.508;15.080;2023-03-01T13:13:30;20.80;34.40
70107;DHT22;57473;37.508;15.080;2023-03-01T13:19:18;20.70;35.10
70107;DHT22;57473;37.508;15.080;2023-03-01T13:21:47;20.30;35.60
70107;DHT22;57473;37.508;15.080;2023-03-01T13:24:41;20.10;36.00
70107;DHT22;57473;37.508;15.080;2023-03-01T13:27:18;20.10;36.00
70107;DHT22;57473;37.508;15.080;2023-03-01T13:29:59;20.50;35.80
70107;DHT22;57473;37.508;15.080;2023-03-01T13:32:35;21.10;34.70
70107;DHT22;57473;37.508;15.080;2023-03-01T13:37:47;20.70;35.40
70107;DHT22;57473;37.508;15.080;2023-03-01T13:42:51;19.90;37.30
70107;DHT22;57473;37.508;15.080;2023-03-01T13:45:43;19.20;38.30
70107;DHT22;57473;37.508;15.080;2023-03-01T13:48:27;19.00;39.00
70107;DHT22;57473;37.508;15.080;2023-03-01T13:51:03;18.80;39.20
70107;DHT22;57473;37.508;15.080;2023-03-01T13:53:40;18.60;40.40
70107;DHT22;57473;37.508;15.080;2023-03-01T13:56:13;18.50;41.20
70107;DHT22;57473;37.508;15.080;2023-03-01T13:58:54;18.10;41.00
70107;DHT22;57473;37.508;15.080;2023-03-01T14:01:32;18.10;41.20
70107;DHT22;57473;37.508;15.080;2023-03-01T14:04:01;18.30;41.50
70107;DHT22;57473;37.508;15.080;2023-03-01T14:06:31;18.30;41.60
70107;DHT22;57473;37.508;15.080;2023-03-01T14:14:56;18.40;41.70
70107;DHT22;57473;37.508;15.080;2023-03-01T14:20:25;18.10;39.10
70107;DHT22;57473;37.508;15.080;2023-03-01T14:22:59;18.00;39.00
70107;DHT22;57473;37.508;15.080;2023-03-01T14:25:33;17.70;40.60
70107;DHT22;57473;37.508;15.080;2023-03-01T14:28:12;17.60;40.40
70107;DHT22;57473;37.508;15.080;2023-03-01T14:30:53;17.60;40.50
70107;DHT22;57473;37.508;15.080;2023-03-01T14:33:23;17.70;38.40
70107;DHT22;57473;37.508;15.080;2023-03-01T14:35:57;17.80;37.40
70107;DHT22;57473;37.508;15.080;2023-03-01T14:41:02;17.60;37.00
70107;DHT22;57473;37.508;15.080;2023-03-01T14:43:38;17.60;37.10
70107;DHT22;57473;37.508;15.080;2023-03-01T14:46:21;17.50;37.20
70107;DHT22;57473;37.508;15.080;2023-03-01T14:48:51;17.50;37.80
70107;DHT22;57473;37.508;15.080;2023-03-01T14:51:23;17.40;37.60
70107;DHT22;57473;37.508;15.080;2023-03-01T14:53:51;17.30;37.60
70107;DHT22;57473;37.508;15.080;2023-03-01T14:56:19;17.20;38.10
70107;DHT22;57473;37.508;15.080;2023-03-01T14:59:01;17.10;37.60
70107;DHT22;57473;37.508;15.080;2023-03-01T15:01:34;17.20;38.10
70107;DHT22;57473;37.508;15.080;2023-03-01T15:04:02;17.20;38.20
70107;DHT22;57473;37.508;15.080;2023-03-01T15:06:30;17.20;39.30
70107;DHT22;57473;37.508;15.080;2023-03-01T15:09:01;17.10;40.10
70107;DHT22;57473;37.508;15.080;2023-03-01T15:11:32;17.00;40.70
70107;DHT22;57473;37.508;15.080;2023-03-01T15:13:59;17.00;41.10
70107;DHT22;57473;37.508;15.080;2023-03-01T15:16:31;17.00;41.40
70107;DHT22;57473;37.508;15.080;2023-03-01T15:19:02;16.80;41.60
70107;DHT22;57473;37.508;15.080;2023-03-01T15:21:34;16.70;42.20
70107;DHT22;57473;37.508;15.080;2023-03-01T15:24:06;16.70;42.40
70107;DHT22;57473;37.508;15.080;2023-03-01T15:26:42;16.70;42.60
70107;DHT22;57473;37.508;15.080;2023-03-01T15:29:30;16.70;42.50
70107;DHT22;57473;37.508;15.080;2023-03-01T15:32:30;16.80;40.70
70107;DHT22;57473;37.508;15.080;2023-03-01T15:34:54;16.70;39.90
70107;DHT22;57473;37.508;15.080;2023-03-01T15:37:44;16.60;40.20
70107;DHT22;57473;37.508;15.080;2023-03-01T15:40:32;16.50;41.20
70107;DHT22;57473;37.508;15.080;2023-03-01T15:43:05;16.40;42.50
70107;DHT22;57473;37.508;15.080;2023-03-01T15:45:33;16.30;43.60
70107;DHT22;57473;37.508;15.080;2023-03-01T15:48:05;16.20;44.50
70107;DHT22;57473;37.508;15.080;2023-03-01T15:50:41;16.10;45.20
70107;DHT22;57473;37.508;15.080;2023-03-01T15:53:15;16.00;45.60
70107;DHT22;57473;37.508;15.080;2023-03-01T15:55:42;16.00;46.30
70107;DHT22;57473;37.508;15.080;2023-03-01T15:58:16;15.90;46.50
70107;DHT22;57473;37.508;15.080;2023-03-01T16:00:45;15.90;46.80
70107;DHT22;57473;37.508;15.080;2023-03-01T16:03:26;15.80;47.30
70107;DHT22;57473;37.508;15.080;2023-03-01T16:05:54;15.70;46.70
70107;DHT22;57473;37.508;15.080;2023-03-01T16:08:21;15.70;47.00
70107;DHT22;57473;37.508;15.080;2023-03-01T16:10:49;15.60;47.50
70107;DHT22;57473;37.508;15.080;2023-03-01T16:13:18;15.50;48.00
70107;DHT22;57473;37.508;15.080;2023-03-01T16:15:46;15.50;48.00
70107;DHT22;57473;37.508;15.080;2023-03-01T16:18:13;15.40;48.00
70107;DHT22;57473;37.508;15.080;2023-03-01T16:20:41;15.40;47.70
70107;DHT22;57473;37.508;15.080;2023-03-01T16:23:10;15.30;47.70
70107;DHT22;57473;37.508;15.080;2023-03-01T16:25:38;15.20;47.70
70107;DHT22;57473;37.508;15.080;2023-03-01T16:28:05;15.10;47.70
70107;DHT22;57473;37.508;15.080;2023-03-01T16:30:39;15.00;47.80
70107;DHT22;57473;37.508;15.080;2023-03-01T16:33:07;14.90;48.00
70107;DHT22;57473;37.508;15.080;2023-03-01T16:35:55;14.90;47.70
70107;DHT22;57473;37.508;15.080;2023-03-01T16:38:23;14.70;48.10
70107;DHT22;57473;37.508;15.080;2023-03-01T16:40:51;14.70;48.60
70107;DHT22;57473;37.508;15.080;2023-03-01T16:43:19;14.60;49.20
70107;DHT22;57473;37.508;15.080;2023-03-01T16:45:46;14.50;49.70
70107;DHT22;57473;37.508;15.080;2023-03-01T16:48:14;14.40;50.00
70107;DHT22;57473;37.508;15.080;2023-03-01T16:50:41;14.30;50.30
70107;DHT22;57473;37.508;15.080;2023-03-01T16:53:09;14.20;50.50
70107;DHT22;57473;37.508;15.080;2023-03-01T16:55:37;14.10;50.70
70107;DHT22;57473;37.508;15.080;2023-03-01T16:58:05;14.00;50.50
70107;DHT22;57473;37.508;15.080;2023-03-01T17:00:32;14.00;50.30
70107;DHT22;57473;37.508;15.080;2023-03-01T17:03:00;13.90;50.20
70107;DHT22;57473;37.508;15.080;2023-03-01T17:05:28;13.90;50.40
70107;DHT22;57473;37.508;15.080;2023-03-01T17:07:56;13.80;51.00
70107;DHT22;57473;37.508;15.080;2023-03-01T17:10:24;13.70;51.50
70107;DHT22;57473;37.508;15.080;2023-03-01T17:12:51;13.60;52.10
70107;DHT22;57473;37.508;15.080;2023-03-01T17:15:19;13.60;52.40
70107;DHT22;57473;37.508;15.080;2023-03-01T17:17:46;13.60;52.50
70107;DHT22;57473;37.508;15.080;2023-03-01T17:20:18;13.50;52.60
70107;DHT22;57473;37.508;15.080;2023-03-01T17:22:46;13.50;52.80
70107;DHT22;57473;37.508;15.080;2023-03-01T17:25:13;13.40;53.00
70107;DHT22;57473;37.508;15.080;2023-03-01T17:27:41;13.40;53.40
70107;DHT22;57473;37.508;15.080;2023-03-01T17:30:11;13.30;53.80
70107;DHT22;57473;37.508;15.080;2023-03-01T17:32:39;13.20;54.10
70107;DHT22;57473;37.508;15.080;2023-03-01T17:35:07;13.20;54.60
70107;DHT22;57473;37.508;15.080;2023-03-01T17:37:34;13.10;55.10